Vancouver, Canada
Current Conditions -  °F | °C
As of 6:00 PM on Wednesday 17 Dec 2014 (Local Time) from CYVR Reporting Station
Light Rain Light Rain  
Wind Chill:   Ceiling: 3400
Heat Index:   Visibility: 15mi
Dew Point:   Wind: 6mph
Humidity: 93%   Direction: 100°E
Pressure: 29.9"   Gusts: NA
Location:  49.26°N, 123.11°W
Report Text: CYVR 180200Z 10005KT 15SM -RA BKN034 OVC039 07/06 A2990 RMK SC5SC3 SLP125
Loading
Personal Weather Stations






























Interactive Weather Map New forecast layout! Learn more

10-Day Weather Forecast

Advertisements
Track Severe Weather on mobile